sensor_id;sensor_type;location;lat;lon;timestamp;P1;durP1;ratioP1;P2;durP2;ratioP2
24743;SDS011;12844;52.110;5.548;2022-12-04T00:00:02;18.42;;;14.30;;
24743;SDS011;12844;52.110;5.548;2022-12-04T00:02:30;18.45;;;14.38;;
24743;SDS011;12844;52.110;5.548;2022-12-04T00:04:56;19.70;;;14.30;;
24743;SDS011;12844;52.110;5.548;2022-12-04T00:07:21;16.58;;;13.50;;
24743;SDS011;12844;52.110;5.548;2022-12-04T00:09:47;19.88;;;14.10;;
24743;SDS011;12844;52.110;5.548;2022-12-04T00:12:12;18.35;;;14.15;;
24743;SDS011;12844;52.110;5.548;2022-12-04T00:14:38;17.90;;;13.65;;
24743;SDS011;12844;52.110;5.548;2022-12-04T00:17:03;18.25;;;13.63;;
24743;SDS011;12844;52.110;5.548;2022-12-04T00:19:29;18.52;;;14.43;;
24743;SDS011;12844;52.110;5.548;2022-12-04T00:21:54;17.33;;;13.90;;
24743;SDS011;12844;52.110;5.548;2022-12-04T00:24:20;18.35;;;14.02;;
24743;SDS011;12844;52.110;5.548;2022-12-04T00:26:45;18.23;;;14.32;;
24743;SDS011;12844;52.110;5.548;2022-12-04T00:29:11;17.52;;;14.18;;
24743;SDS011;12844;52.110;5.548;2022-12-04T00:31:36;19.20;;;14.05;;
24743;SDS011;12844;52.110;5.548;2022-12-04T00:34:03;19.25;;;14.68;;
24743;SDS011;12844;52.110;5.548;2022-12-04T00:36:29;20.88;;;14.63;;
24743;SDS011;12844;52.110;5.548;2022-12-04T00:38:55;18.45;;;14.10;;
24743;SDS011;12844;52.110;5.548;2022-12-04T00:41:24;20.52;;;14.45;;
24743;SDS011;12844;52.110;5.548;2022-12-04T00:43:51;19.50;;;14.43;;
24743;SDS011;12844;52.110;5.548;2022-12-04T00:46:17;16.90;;;13.80;;
24743;SDS011;12844;52.110;5.548;2022-12-04T00:48:42;18.38;;;14.40;;
24743;SDS011;12844;52.110;5.548;2022-12-04T00:51:10;19.60;;;14.95;;
24743;SDS011;12844;52.110;5.548;2022-12-04T00:53:38;17.90;;;14.40;;
24743;SDS011;12844;52.110;5.548;2022-12-04T00:56:04;20.42;;;14.73;;
24743;SDS011;12844;52.110;5.548;2022-12-04T00:58:31;17.80;;;13.98;;
24743;SDS011;12844;52.110;5.548;2022-12-04T01:01:01;19.00;;;14.65;;
24743;SDS011;12844;52.110;5.548;2022-12-04T01:03:31;20.58;;;14.35;;
24743;SDS011;12844;52.110;5.548;2022-12-04T01:05:57;18.10;;;14.70;;
24743;SDS011;12844;52.110;5.548;2022-12-04T01:08:23;19.02;;;14.85;;
24743;SDS011;12844;52.110;5.548;2022-12-04T01:10:49;18.95;;;14.45;;
24743;SDS011;12844;52.110;5.548;2022-12-04T01:13:14;20.15;;;14.25;;
24743;SDS011;12844;52.110;5.548;2022-12-04T01:15:40;18.52;;;14.77;;
24743;SDS011;12844;52.110;5.548;2022-12-04T01:18:08;18.98;;;14.98;;
24743;SDS011;12844;52.110;5.548;2022-12-04T01:20:34;19.75;;;15.05;;
24743;SDS011;12844;52.110;5.548;2022-12-04T01:23:00;20.50;;;15.63;;
24743;SDS011;12844;52.110;5.548;2022-12-04T01:25:26;19.65;;;15.20;;
24743;SDS011;12844;52.110;5.548;2022-12-04T01:27:51;19.63;;;15.13;;
24743;SDS011;12844;52.110;5.548;2022-12-04T01:30:17;18.65;;;14.93;;
24743;SDS011;12844;52.110;5.548;2022-12-04T01:32:42;18.60;;;14.35;;
24743;SDS011;12844;52.110;5.548;2022-12-04T01:35:08;18.25;;;15.02;;
24743;SDS011;12844;52.110;5.548;2022-12-04T01:37:34;20.85;;;15.48;;
24743;SDS011;12844;52.110;5.548;2022-12-04T01:40:00;20.38;;;15.23;;
24743;SDS011;12844;52.110;5.548;2022-12-04T01:42:25;22.00;;;15.07;;
24743;SDS011;12844;52.110;5.548;2022-12-04T01:47:57;19.23;;;14.85;;
24743;SDS011;12844;52.110;5.548;2022-12-04T01:50:30;18.58;;;14.82;;
24743;SDS011;12844;52.110;5.548;2022-12-04T01:52:56;18.67;;;14.55;;
24743;SDS011;12844;52.110;5.548;2022-12-04T01:55:22;18.25;;;15.43;;
24743;SDS011;12844;52.110;5.548;2022-12-04T01:57:48;19.25;;;15.98;;
24743;SDS011;12844;52.110;5.548;2022-12-04T02:00:14;19.95;;;15.60;;
24743;SDS011;12844;52.110;5.548;2022-12-04T02:02:41;18.40;;;14.70;;
24743;SDS011;12844;52.110;5.548;2022-12-04T02:05:10;18.65;;;14.90;;
24743;SDS011;12844;52.110;5.548;2022-12-04T02:07:37;19.83;;;15.45;;
24743;SDS011;12844;52.110;5.548;2022-12-04T02:10:04;19.83;;;15.50;;
24743;SDS011;12844;52.110;5.548;2022-12-04T02:15:17;18.15;;;14.20;;
24743;SDS011;12844;52.110;5.548;2022-12-04T02:23:21;18.73;;;15.23;;
24743;SDS011;12844;52.110;5.548;2022-12-04T02:26:11;19.67;;;15.52;;
24743;SDS011;12844;52.110;5.548;2022-12-04T02:28:49;22.88;;;16.27;;
24743;SDS011;12844;52.110;5.548;2022-12-04T02:31:37;19.38;;;15.10;;
24743;SDS011;12844;52.110;5.548;2022-12-04T02:37:17;19.67;;;15.52;;
24743;SDS011;12844;52.110;5.548;2022-12-04T02:39:50;19.48;;;15.70;;
24743;SDS011;12844;52.110;5.548;2022-12-04T02:45:00;18.92;;;14.60;;
24743;SDS011;12844;52.110;5.548;2022-12-04T02:47:30;19.67;;;15.48;;
24743;SDS011;12844;52.110;5.548;2022-12-04T02:49:58;19.33;;;15.63;;
24743;SDS011;12844;52.110;5.548;2022-12-04T02:52:28;20.45;;;15.82;;
24743;SDS011;12844;52.110;5.548;2022-12-04T02:54:58;19.75;;;14.98;;
24743;SDS011;12844;52.110;5.548;2022-12-04T02:57:30;19.95;;;15.13;;
24743;SDS011;12844;52.110;5.548;2022-12-04T02:59:58;19.73;;;15.13;;
24743;SDS011;12844;52.110;5.548;2022-12-04T03:02:30;20.30;;;15.35;;
24743;SDS011;12844;52.110;5.548;2022-12-04T03:05:04;19.25;;;15.25;;
24743;SDS011;12844;52.110;5.548;2022-12-04T03:08:09;19.60;;;15.63;;
24743;SDS011;12844;52.110;5.548;2022-12-04T03:10:33;21.60;;;16.17;;
24743;SDS011;12844;52.110;5.548;2022-12-04T03:13:05;19.88;;;15.75;;
24743;SDS011;12844;52.110;5.548;2022-12-04T03:16:20;20.65;;;15.63;;
24743;SDS011;12844;52.110;5.548;2022-12-04T03:18:21;18.63;;;15.32;;
24743;SDS011;12844;52.110;5.548;2022-12-04T03:20:55;19.55;;;15.45;;
24743;SDS011;12844;52.110;5.548;2022-12-04T03:23:29;19.60;;;15.35;;
24743;SDS011;12844;52.110;5.548;2022-12-04T03:26:06;20.02;;;16.05;;
24743;SDS011;12844;52.110;5.548;2022-12-04T03:28:45;20.08;;;15.63;;
24743;SDS011;12844;52.110;5.548;2022-12-04T03:31:23;19.90;;;15.77;;
24743;SDS011;12844;52.110;5.548;2022-12-04T03:34:11;20.08;;;15.88;;
24743;SDS011;12844;52.110;5.548;2022-12-04T03:36:43;19.92;;;15.32;;
24743;SDS011;12844;52.110;5.548;2022-12-04T03:39:21;20.52;;;15.93;;
24743;SDS011;12844;52.110;5.548;2022-12-04T03:42:01;20.48;;;15.77;;
24743;SDS011;12844;52.110;5.548;2022-12-04T03:44:34;20.52;;;15.68;;
24743;SDS011;12844;52.110;5.548;2022-12-04T03:47:05;19.65;;;15.75;;
24743;SDS011;12844;52.110;5.548;2022-12-04T03:49:45;19.67;;;15.68;;
24743;SDS011;12844;52.110;5.548;2022-12-04T03:52:19;20.17;;;15.80;;
24743;SDS011;12844;52.110;5.548;2022-12-04T03:55:12;21.13;;;15.65;;
24743;SDS011;12844;52.110;5.548;2022-12-04T03:57:38;20.02;;;16.10;;
24743;SDS011;12844;52.110;5.548;2022-12-04T04:00:09;21.40;;;16.33;;
24743;SDS011;12844;52.110;5.548;2022-12-04T04:02:42;18.95;;;15.68;;
24743;SDS011;12844;52.110;5.548;2022-12-04T04:05:29;18.83;;;15.25;;
24743;SDS011;12844;52.110;5.548;2022-12-04T04:07:57;20.33;;;16.40;;
24743;SDS011;12844;52.110;5.548;2022-12-04T04:10:46;19.88;;;15.38;;
24743;SDS011;12844;52.110;5.548;2022-12-04T04:13:14;20.55;;;16.27;;
24743;SDS011;12844;52.110;5.548;2022-12-04T04:16:01;21.45;;;16.13;;
24743;SDS011;12844;52.110;5.548;2022-12-04T04:18:50;19.15;;;15.68;;
24743;SDS011;12844;52.110;5.548;2022-12-04T04:21:36;20.42;;;16.23;;
24743;SDS011;12844;52.110;5.548;2022-12-04T04:24:38;18.27;;;14.77;;
24743;SDS011;12844;52.110;5.548;2022-12-04T04:27:07;19.15;;;15.40;;
24743;SDS011;12844;52.110;5.548;2022-12-04T04:29:33;19.80;;;16.10;;
24743;SDS011;12844;52.110;5.548;2022-12-04T04:32:02;20.27;;;15.35;;
24743;SDS011;12844;52.110;5.548;2022-12-04T04:37:49;18.98;;;15.25;;
24743;SDS011;12844;52.110;5.548;2022-12-04T04:43:07;19.63;;;15.80;;
24743;SDS011;12844;52.110;5.548;2022-12-04T04:48:47;20.20;;;15.80;;
24743;SDS011;12844;52.110;5.548;2022-12-04T04:51:16;20.60;;;16.35;;
24743;SDS011;12844;52.110;5.548;2022-12-04T04:53:46;20.75;;;15.90;;
24743;SDS011;12844;52.110;5.548;2022-12-04T04:58:41;20.15;;;15.52;;
24743;SDS011;12844;52.110;5.548;2022-12-04T05:01:11;18.85;;;14.85;;
24743;SDS011;12844;52.110;5.548;2022-12-04T05:03:38;19.80;;;15.63;;
24743;SDS011;12844;52.110;5.548;2022-12-04T05:06:05;19.60;;;15.90;;
24743;SDS011;12844;52.110;5.548;2022-12-04T05:08:30;20.50;;;15.68;;
24743;SDS011;12844;52.110;5.548;2022-12-04T05:10:56;21.42;;;15.07;;
24743;SDS011;12844;52.110;5.548;2022-12-04T05:13:22;20.05;;;16.00;;
24743;SDS011;12844;52.110;5.548;2022-12-04T05:15:57;20.35;;;15.73;;
24743;SDS011;12844;52.110;5.548;2022-12-04T05:18:24;19.83;;;16.30;;
24743;SDS011;12844;52.110;5.548;2022-12-04T05:20:50;20.35;;;15.75;;
24743;SDS011;12844;52.110;5.548;2022-12-04T05:23:15;20.25;;;16.25;;
24743;SDS011;12844;52.110;5.548;2022-12-04T05:25:41;20.33;;;16.40;;
24743;SDS011;12844;52.110;5.548;2022-12-04T05:28:06;20.40;;;16.17;;
24743;SDS011;12844;52.110;5.548;2022-12-04T05:30:32;20.15;;;15.70;;
24743;SDS011;12844;52.110;5.548;2022-12-04T05:32:57;20.42;;;16.88;;
24743;SDS011;12844;52.110;5.548;2022-12-04T05:35:23;19.10;;;15.70;;
24743;SDS011;12844;52.110;5.548;2022-12-04T05:37:48;20.40;;;16.10;;
24743;SDS011;12844;52.110;5.548;2022-12-04T05:40:14;21.00;;;16.40;;
24743;SDS011;12844;52.110;5.548;2022-12-04T05:42:40;20.77;;;16.35;;
24743;SDS011;12844;52.110;5.548;2022-12-04T05:45:05;20.58;;;16.58;;
24743;SDS011;12844;52.110;5.548;2022-12-04T05:47:32;20.25;;;16.15;;
24743;SDS011;12844;52.110;5.548;2022-12-04T05:50:02;20.08;;;15.95;;
24743;SDS011;12844;52.110;5.548;2022-12-04T05:52:28;20.00;;;15.90;;
24743;SDS011;12844;52.110;5.548;2022-12-04T05:54:53;19.98;;;16.15;;
24743;SDS011;12844;52.110;5.548;2022-12-04T05:57:19;20.15;;;16.40;;
24743;SDS011;12844;52.110;5.548;2022-12-04T05:59:44;19.55;;;15.45;;
24743;SDS011;12844;52.110;5.548;2022-12-04T06:02:10;19.67;;;15.70;;
24743;SDS011;12844;52.110;5.548;2022-12-04T06:04:36;19.33;;;15.98;;
24743;SDS011;12844;52.110;5.548;2022-12-04T06:07:02;20.27;;;15.85;;
24743;SDS011;12844;52.110;5.548;2022-12-04T06:09:27;20.75;;;16.63;;
24743;SDS011;12844;52.110;5.548;2022-12-04T06:11:55;19.92;;;15.95;;
24743;SDS011;12844;52.110;5.548;2022-12-04T06:14:22;20.13;;;16.17;;
24743;SDS011;12844;52.110;5.548;2022-12-04T06:16:47;19.85;;;16.35;;
24743;SDS011;12844;52.110;5.548;2022-12-04T06:19:14;20.17;;;15.82;;
24743;SDS011;12844;52.110;5.548;2022-12-04T06:21:43;19.67;;;15.98;;
24743;SDS011;12844;52.110;5.548;2022-12-04T06:24:11;19.60;;;15.68;;
24743;SDS011;12844;52.110;5.548;2022-12-04T06:26:39;20.50;;;16.63;;
24743;SDS011;12844;52.110;5.548;2022-12-04T06:29:05;20.77;;;16.00;;
24743;SDS011;12844;52.110;5.548;2022-12-04T06:31:30;19.98;;;15.73;;
24743;SDS011;12844;52.110;5.548;2022-12-04T06:33:57;20.65;;;16.00;;
24743;SDS011;12844;52.110;5.548;2022-12-04T06:36:23;20.27;;;15.48;;
24743;SDS011;12844;52.110;5.548;2022-12-04T06:38:50;18.77;;;15.32;;
24743;SDS011;12844;52.110;5.548;2022-12-04T06:41:17;19.58;;;15.73;;
24743;SDS011;12844;52.110;5.548;2022-12-04T06:43:44;19.77;;;15.50;;
24743;SDS011;12844;52.110;5.548;2022-12-04T06:46:11;20.10;;;15.38;;
24743;SDS011;12844;52.110;5.548;2022-12-04T06:48:38;20.05;;;15.65;;
24743;SDS011;12844;52.110;5.548;2022-12-04T06:53:37;20.80;;;15.75;;
24743;SDS011;12844;52.110;5.548;2022-12-04T06:56:04;20.38;;;16.45;;
24743;SDS011;12844;52.110;5.548;2022-12-04T06:58:32;19.77;;;15.30;;
24743;SDS011;12844;52.110;5.548;2022-12-04T07:00:58;21.33;;;16.42;;
24743;SDS011;12844;52.110;5.548;2022-12-04T07:03:24;20.60;;;15.85;;
24743;SDS011;12844;52.110;5.548;2022-12-04T07:05:50;20.40;;;16.27;;
24743;SDS011;12844;52.110;5.548;2022-12-04T07:08:15;19.52;;;15.48;;
24743;SDS011;12844;52.110;5.548;2022-12-04T07:10:42;20.40;;;15.70;;
24743;SDS011;12844;52.110;5.548;2022-12-04T07:13:08;19.40;;;15.10;;
24743;SDS011;12844;52.110;5.548;2022-12-04T07:15:35;20.27;;;16.38;;
24743;SDS011;12844;52.110;5.548;2022-12-04T07:18:01;21.45;;;16.52;;
24743;SDS011;12844;52.110;5.548;2022-12-04T07:20:28;19.60;;;15.52;;
24743;SDS011;12844;52.110;5.548;2022-12-04T07:22:53;19.80;;;15.85;;
24743;SDS011;12844;52.110;5.548;2022-12-04T07:25:19;19.77;;;15.88;;
24743;SDS011;12844;52.110;5.548;2022-12-04T07:27:44;18.75;;;15.57;;
24743;SDS011;12844;52.110;5.548;2022-12-04T07:30:10;19.90;;;15.88;;
24743;SDS011;12844;52.110;5.548;2022-12-04T07:32:36;21.73;;;15.98;;
24743;SDS011;12844;52.110;5.548;2022-12-04T07:35:02;21.02;;;15.75;;
24743;SDS011;12844;52.110;5.548;2022-12-04T07:37:29;20.48;;;16.10;;
24743;SDS011;12844;52.110;5.548;2022-12-04T07:39:55;20.30;;;16.10;;
24743;SDS011;12844;52.110;5.548;2022-12-04T07:42:20;20.35;;;16.52;;
24743;SDS011;12844;52.110;5.548;2022-12-04T07:44:46;21.38;;;15.68;;
24743;SDS011;12844;52.110;5.548;2022-12-04T07:47:12;20.27;;;15.65;;
24743;SDS011;12844;52.110;5.548;2022-12-04T07:49:37;20.42;;;15.75;;
24743;SDS011;12844;52.110;5.548;2022-12-04T07:52:03;19.33;;;16.08;;
24743;SDS011;12844;52.110;5.548;2022-12-04T07:54:29;21.05;;;16.77;;
24743;SDS011;12844;52.110;5.548;2022-12-04T07:56:55;20.88;;;16.23;;
24743;SDS011;12844;52.110;5.548;2022-12-04T07:59:20;20.20;;;15.88;;
24743;SDS011;12844;52.110;5.548;2022-12-04T08:01:46;22.35;;;17.02;;
24743;SDS011;12844;52.110;5.548;2022-12-04T08:04:12;20.13;;;15.93;;
24743;SDS011;12844;52.110;5.548;2022-12-04T08:06:37;20.83;;;16.88;;
24743;SDS011;12844;52.110;5.548;2022-12-04T08:09:03;20.38;;;16.15;;
24743;SDS011;12844;52.110;5.548;2022-12-04T08:11:30;18.92;;;14.98;;
24743;SDS011;12844;52.110;5.548;2022-12-04T08:13:57;20.45;;;15.85;;
24743;SDS011;12844;52.110;5.548;2022-12-04T08:16:24;19.75;;;15.75;;
24743;SDS011;12844;52.110;5.548;2022-12-04T08:18:50;21.60;;;16.55;;
24743;SDS011;12844;52.110;5.548;2022-12-04T08:21:18;20.02;;;16.25;;
24743;SDS011;12844;52.110;5.548;2022-12-04T08:23:45;22.15;;;16.63;;
24743;SDS011;12844;52.110;5.548;2022-12-04T08:26:12;20.42;;;15.02;;
24743;SDS011;12844;52.110;5.548;2022-12-04T08:28:38;21.17;;;15.88;;
24743;SDS011;12844;52.110;5.548;2022-12-04T08:31:05;19.73;;;15.65;;
24743;SDS011;12844;52.110;5.548;2022-12-04T08:33:31;19.35;;;14.93;;
24743;SDS011;12844;52.110;5.548;2022-12-04T08:35:58;20.63;;;16.25;;
24743;SDS011;12844;52.110;5.548;2022-12-04T08:38:23;21.60;;;17.02;;
24743;SDS011;12844;52.110;5.548;2022-12-04T08:40:49;20.42;;;15.40;;
24743;SDS011;12844;52.110;5.548;2022-12-04T08:43:15;20.75;;;15.27;;
24743;SDS011;12844;52.110;5.548;2022-12-04T08:45:40;21.63;;;16.27;;
24743;SDS011;12844;52.110;5.548;2022-12-04T08:48:06;22.73;;;16.35;;
24743;SDS011;12844;52.110;5.548;2022-12-04T08:50:31;20.15;;;15.73;;
24743;SDS011;12844;52.110;5.548;2022-12-04T08:52:57;19.60;;;14.85;;
24743;SDS011;12844;52.110;5.548;2022-12-04T08:55:22;20.70;;;15.25;;
24743;SDS011;12844;52.110;5.548;2022-12-04T08:57:51;19.73;;;14.30;;
24743;SDS011;12844;52.110;5.548;2022-12-04T09:00:18;18.10;;;14.50;;
24743;SDS011;12844;52.110;5.548;2022-12-04T09:02:44;18.58;;;14.68;;
24743;SDS011;12844;52.110;5.548;2022-12-04T09:05:13;16.92;;;13.25;;
24743;SDS011;12844;52.110;5.548;2022-12-04T09:07:39;19.20;;;13.07;;
24743;SDS011;12844;52.110;5.548;2022-12-04T09:10:05;19.13;;;13.90;;
24743;SDS011;12844;52.110;5.548;2022-12-04T09:12:31;16.23;;;13.63;;
24743;SDS011;12844;52.110;5.548;2022-12-04T09:14:56;16.95;;;13.60;;
24743;SDS011;12844;52.110;5.548;2022-12-04T09:17:22;17.67;;;13.32;;
24743;SDS011;12844;52.110;5.548;2022-12-04T09:19:47;17.20;;;12.93;;
24743;SDS011;12844;52.110;5.548;2022-12-04T09:22:14;16.88;;;13.35;;
24743;SDS011;12844;52.110;5.548;2022-12-04T09:24:39;16.77;;;13.27;;
24743;SDS011;12844;52.110;5.548;2022-12-04T09:27:05;17.90;;;13.10;;
24743;SDS011;12844;52.110;5.548;2022-12-04T09:29:30;16.35;;;13.18;;
24743;SDS011;12844;52.110;5.548;2022-12-04T09:31:56;15.50;;;12.32;;
24743;SDS011;12844;52.110;5.548;2022-12-04T09:34:22;19.95;;;14.18;;
24743;SDS011;12844;52.110;5.548;2022-12-04T09:36:47;18.00;;;12.85;;
24743;SDS011;12844;52.110;5.548;2022-12-04T09:39:14;16.17;;;13.60;;
24743;SDS011;12844;52.110;5.548;2022-12-04T09:41:51;14.75;;;12.40;;
24743;SDS011;12844;52.110;5.548;2022-12-04T09:44:32;16.95;;;12.70;;
24743;SDS011;12844;52.110;5.548;2022-12-04T09:47:10;16.10;;;11.82;;
24743;SDS011;12844;52.110;5.548;2022-12-04T09:49:55;18.25;;;12.68;;
24743;SDS011;12844;52.110;5.548;2022-12-04T09:52:46;15.60;;;11.90;;
24743;SDS011;12844;52.110;5.548;2022-12-04T09:58:02;16.92;;;12.45;;
24743;SDS011;12844;52.110;5.548;2022-12-04T10:00:30;16.58;;;12.45;;
24743;SDS011;12844;52.110;5.548;2022-12-04T10:03:03;16.52;;;12.30;;
24743;SDS011;12844;52.110;5.548;2022-12-04T10:08:27;17.38;;;12.15;;
24743;SDS011;12844;52.110;5.548;2022-12-04T10:11:11;14.85;;;11.45;;
24743;SDS011;12844;52.110;5.548;2022-12-04T10:22:21;14.13;;;11.00;;
24743;SDS011;12844;52.110;5.548;2022-12-04T10:24:56;13.38;;;11.38;;
24743;SDS011;12844;52.110;5.548;2022-12-04T10:32:47;13.07;;;11.13;;
24743;SDS011;12844;52.110;5.548;2022-12-04T10:35:35;13.73;;;10.80;;
24743;SDS011;12844;52.110;5.548;2022-12-04T10:38:37;12.43;;;10.63;;
24743;SDS011;12844;52.110;5.548;2022-12-04T10:41:08;13.63;;;10.07;;
24743;SDS011;12844;52.110;5.548;2022-12-04T10:43:53;14.60;;;11.60;;
24743;SDS011;12844;52.110;5.548;2022-12-04T10:48:54;12.20;;;10.43;;
24743;SDS011;12844;52.110;5.548;2022-12-04T10:51:27;11.95;;;9.95;;
24743;SDS011;12844;52.110;5.548;2022-12-04T10:54:00;13.95;;;10.57;;
24743;SDS011;12844;52.110;5.548;2022-12-04T10:56:25;12.40;;;9.90;;
24743;SDS011;12844;52.110;5.548;2022-12-04T10:58:58;13.35;;;10.10;;
24743;SDS011;12844;52.110;5.548;2022-12-04T11:01:25;11.82;;;9.60;;
24743;SDS011;12844;52.110;5.548;2022-12-04T11:04:02;10.95;;;9.38;;
24743;SDS011;12844;52.110;5.548;2022-12-04T11:06:31;12.27;;;9.98;;
24743;SDS011;12844;52.110;5.548;2022-12-04T11:08:58;11.18;;;9.25;;
24743;SDS011;12844;52.110;5.548;2022-12-04T11:11:31;11.00;;;9.43;;
24743;SDS011;12844;52.110;5.548;2022-12-04T11:14:02;12.95;;;9.27;;
24743;SDS011;12844;52.110;5.548;2022-12-04T11:16:35;11.27;;;9.20;;
24743;SDS011;12844;52.110;5.548;2022-12-04T11:19:16;13.32;;;9.63;;
24743;SDS011;12844;52.110;5.548;2022-12-04T11:21:45;12.98;;;9.00;;
24743;SDS011;12844;52.110;5.548;2022-12-04T11:27:18;11.70;;;9.48;;
24743;SDS011;12844;52.110;5.548;2022-12-04T11:30:09;11.75;;;9.23;;
24743;SDS011;12844;52.110;5.548;2022-12-04T11:32:39;14.43;;;9.48;;
24743;SDS011;12844;52.110;5.548;2022-12-04T11:35:11;12.38;;;8.98;;
24743;SDS011;12844;52.110;5.548;2022-12-04T11:38:04;10.00;;;8.52;;
24743;SDS011;12844;52.110;5.548;2022-12-04T11:40:36;11.60;;;8.85;;
24743;SDS011;12844;52.110;5.548;2022-12-04T11:45:30;12.20;;;8.82;;
24743;SDS011;12844;52.110;5.548;2022-12-04T11:47:57;12.55;;;9.02;;
24743;SDS011;12844;52.110;5.548;2022-12-04T11:50:27;11.77;;;9.32;;
24743;SDS011;12844;52.110;5.548;2022-12-04T11:53:14;13.63;;;9.05;;
24743;SDS011;12844;52.110;5.548;2022-12-04T12:06:47;9.48;;;8.25;;
24743;SDS011;12844;52.110;5.548;2022-12-04T12:09:30;10.63;;;8.32;;
24743;SDS011;12844;52.110;5.548;2022-12-04T12:12:32;11.80;;;8.77;;
24743;SDS011;12844;52.110;5.548;2022-12-04T12:15:18;12.57;;;8.00;;
24743;SDS011;12844;52.110;5.548;2022-12-04T12:20:40;18.65;;;8.27;;
24743;SDS011;12844;52.110;5.548;2022-12-04T12:33:48;12.05;;;8.00;;
24743;SDS011;12844;52.110;5.548;2022-12-04T12:36:19;12.15;;;7.82;;
24743;SDS011;12844;52.110;5.548;2022-12-04T12:38:55;10.90;;;7.93;;
24743;SDS011;12844;52.110;5.548;2022-12-04T12:46:39;13.93;;;7.95;;
24743;SDS011;12844;52.110;5.548;2022-12-04T12:52:05;11.77;;;7.10;;
24743;SDS011;12844;52.110;5.548;2022-12-04T12:57:16;10.35;;;7.07;;
24743;SDS011;12844;52.110;5.548;2022-12-04T12:59:45;9.93;;;7.47;;
24743;SDS011;12844;52.110;5.548;2022-12-04T13:02:27;10.13;;;7.20;;
24743;SDS011;12844;52.110;5.548;2022-12-04T13:05:28;10.45;;;7.07;;
24743;SDS011;12844;52.110;5.548;2022-12-04T13:08:24;13.20;;;6.72;;
24743;SDS011;12844;52.110;5.548;2022-12-04T13:11:03;12.00;;;6.75;;
24743;SDS011;12844;52.110;5.548;2022-12-04T13:13:46;8.88;;;6.80;;
24743;SDS011;12844;52.110;5.548;2022-12-04T13:16:22;9.70;;;6.43;;
24743;SDS011;12844;52.110;5.548;2022-12-04T13:21:36;12.95;;;7.10;;
24743;SDS011;12844;52.110;5.548;2022-12-04T13:32:15;12.70;;;6.82;;
24743;SDS011;12844;52.110;5.548;2022-12-04T13:35:27;8.70;;;6.60;;
24743;SDS011;12844;52.110;5.548;2022-12-04T13:40:54;9.68;;;6.70;;
24743;SDS011;12844;52.110;5.548;2022-12-04T13:45:52;16.95;;;7.40;;
24743;SDS011;12844;52.110;5.548;2022-12-04T13:48:27;10.30;;;7.07;;
24743;SDS011;12844;52.110;5.548;2022-12-04T13:51:05;8.65;;;7.03;;
24743;SDS011;12844;52.110;5.548;2022-12-04T13:54:26;9.93;;;6.70;;
24743;SDS011;12844;52.110;5.548;2022-12-04T13:56:55;11.82;;;6.05;;
24743;SDS011;12844;52.110;5.548;2022-12-04T13:59:36;10.38;;;6.38;;
24743;SDS011;12844;52.110;5.548;2022-12-04T14:04:59;12.98;;;6.32;;
24743;SDS011;12844;52.110;5.548;2022-12-04T14:07:35;11.35;;;6.25;;
24743;SDS011;12844;52.110;5.548;2022-12-04T14:12:41;9.32;;;6.63;;
24743;SDS011;12844;52.110;5.548;2022-12-04T14:17:55;10.82;;;6.53;;
24743;SDS011;12844;52.110;5.548;2022-12-04T14:20:24;10.20;;;7.22;;
24743;SDS011;12844;52.110;5.548;2022-12-04T14:25:46;9.75;;;6.75;;
24743;SDS011;12844;52.110;5.548;2022-12-04T14:28:57;10.43;;;6.38;;
24743;SDS011;12844;52.110;5.548;2022-12-04T14:33:59;9.77;;;7.03;;
24743;SDS011;12844;52.110;5.548;2022-12-04T14:36:29;9.80;;;7.07;;
24743;SDS011;12844;52.110;5.548;2022-12-04T14:39:43;10.75;;;6.88;;
24743;SDS011;12844;52.110;5.548;2022-12-04T14:42:15;9.98;;;7.28;;
24743;SDS011;12844;52.110;5.548;2022-12-04T14:44:49;13.50;;;6.82;;
24743;SDS011;12844;52.110;5.548;2022-12-04T14:52:53;10.38;;;7.20;;
24743;SDS011;12844;52.110;5.548;2022-12-04T14:55:31;10.15;;;7.65;;
24743;SDS011;12844;52.110;5.548;2022-12-04T14:58:13;10.05;;;7.03;;
24743;SDS011;12844;52.110;5.548;2022-12-04T15:04:21;9.82;;;7.38;;
24743;SDS011;12844;52.110;5.548;2022-12-04T15:06:55;10.20;;;7.13;;
24743;SDS011;12844;52.110;5.548;2022-12-04T15:09:23;10.07;;;7.35;;
24743;SDS011;12844;52.110;5.548;2022-12-04T15:12:21;11.15;;;7.25;;
24743;SDS011;12844;52.110;5.548;2022-12-04T15:14:57;11.10;;;7.38;;
24743;SDS011;12844;52.110;5.548;2022-12-04T15:17:26;10.60;;;7.63;;
24743;SDS011;12844;52.110;5.548;2022-12-04T15:19:52;10.90;;;7.30;;
24743;SDS011;12844;52.110;5.548;2022-12-04T15:22:24;9.55;;;6.97;;
24743;SDS011;12844;52.110;5.548;2022-12-04T15:27:22;10.88;;;7.93;;
24743;SDS011;12844;52.110;5.548;2022-12-04T15:29:50;11.27;;;7.70;;
24743;SDS011;12844;52.110;5.548;2022-12-04T15:32:19;9.95;;;7.47;;
24743;SDS011;12844;52.110;5.548;2022-12-04T15:34:48;11.50;;;8.43;;
24743;SDS011;12844;52.110;5.548;2022-12-04T15:37:18;8.88;;;6.93;;
24743;SDS011;12844;52.110;5.548;2022-12-04T15:39:51;11.73;;;7.97;;
24743;SDS011;12844;52.110;5.548;2022-12-04T15:47:24;12.40;;;8.02;;
24743;SDS011;12844;52.110;5.548;2022-12-04T15:49:51;13.23;;;7.80;;
24743;SDS011;12844;52.110;5.548;2022-12-04T15:52:19;12.05;;;8.43;;
24743;SDS011;12844;52.110;5.548;2022-12-04T15:54:51;11.48;;;8.25;;
24743;SDS011;12844;52.110;5.548;2022-12-04T15:57:24;12.27;;;8.00;;
24743;SDS011;12844;52.110;5.548;2022-12-04T15:59:53;11.38;;;7.97;;
24743;SDS011;12844;52.110;5.548;2022-12-04T16:02:22;10.68;;;8.35;;
24743;SDS011;12844;52.110;5.548;2022-12-04T16:04:53;14.40;;;8.35;;
24743;SDS011;12844;52.110;5.548;2022-12-04T16:07:22;10.38;;;8.15;;
24743;SDS011;12844;52.110;5.548;2022-12-04T16:09:54;11.20;;;8.45;;
24743;SDS011;12844;52.110;5.548;2022-12-04T16:12:25;14.05;;;8.02;;
24743;SDS011;12844;52.110;5.548;2022-12-04T16:14:53;11.88;;;8.00;;
24743;SDS011;12844;52.110;5.548;2022-12-04T16:17:21;10.32;;;8.18;;
24743;SDS011;12844;52.110;5.548;2022-12-04T16:19:52;12.50;;;7.82;;
24743;SDS011;12844;52.110;5.548;2022-12-04T16:22:19;11.13;;;8.48;;
24743;SDS011;12844;52.110;5.548;2022-12-04T16:24:47;10.80;;;8.13;;
24743;SDS011;12844;52.110;5.548;2022-12-04T16:27:14;11.45;;;8.55;;
24743;SDS011;12844;52.110;5.548;2022-12-04T16:29:43;13.02;;;7.85;;
24743;SDS011;12844;52.110;5.548;2022-12-04T16:32:13;11.90;;;8.43;;
24743;SDS011;12844;52.110;5.548;2022-12-04T16:34:44;10.13;;;8.20;;
24743;SDS011;12844;52.110;5.548;2022-12-04T16:37:19;10.73;;;8.10;;
24743;SDS011;12844;52.110;5.548;2022-12-04T16:39:46;9.80;;;8.20;;
24743;SDS011;12844;52.110;5.548;2022-12-04T16:42:13;10.88;;;8.10;;
24743;SDS011;12844;52.110;5.548;2022-12-04T16:44:41;9.65;;;7.95;;
24743;SDS011;12844;52.110;5.548;2022-12-04T16:47:07;10.45;;;8.50;;
24743;SDS011;12844;52.110;5.548;2022-12-04T16:49:34;12.38;;;8.38;;
24743;SDS011;12844;52.110;5.548;2022-12-04T16:52:00;12.75;;;8.18;;
24743;SDS011;12844;52.110;5.548;2022-12-04T16:54:26;11.80;;;8.40;;
24743;SDS011;12844;52.110;5.548;2022-12-04T16:56:51;10.32;;;8.27;;
24743;SDS011;12844;52.110;5.548;2022-12-04T16:59:16;10.93;;;8.32;;
24743;SDS011;12844;52.110;5.548;2022-12-04T17:01:43;11.00;;;8.60;;
24743;SDS011;12844;52.110;5.548;2022-12-04T17:04:11;12.25;;;9.02;;
24743;SDS011;12844;52.110;5.548;2022-12-04T17:06:36;12.32;;;9.05;;